X  Sluiten METAR luchtvaart weer gegevens      EHBK Maastricht Aachen Airport
Temperatuur
16°C Temperatuur
14°C Dauwpunt
88% Vochtigheid



Wind
16 KM/U
10 MPH
4 M/S
9 KTS



200°
ZZW
Huidig weer

Wat bewolking Wat bewolking
Luchtdruk 1006.77 (hPa) - 29.73 (inHg)
Zicht 6 (mijl) - 9.7 (km)
Vliegveld
Vliegveld code EHBK

Locatie : Maastricht Aachen Airport
Afstand: 26 (km)

Metar:
EHBK 161725Z AUTO 20009KT 170V230 9999 FEW016 SCT022 BKN026 16/14 Q1007 NOSIG

Tijd: 16-06-2024 19:25 CEST